Iron Mountain, MI

6:41 PM CDT on May 23, 2018 (GMT -0500)
Ford

Weather History for KIMT - January, 2014

Change the Weather History Date:

Saturday, January 25, 2014

  Actual Average Record
Temperature  
Mean Temperature 10 °F -  
Max Temperature 21 °F 26 °F 50 °F (1973)
Min Temperature -2 °F 6 °F -21 °F (1991)
Degree Days  
Heating Degree Days 56    
Moisture  
Dew Point -6 °F    
Average Humidity 65    
Maximum Humidity 80    
Minimum Humidity 55    
Precipitation  
Precipitation 0.00 in - - ()
Sea Level Pressure  
Sea Level Pressure 29.51 in    
Wind  
Wind Speed 17 mph (NW)    
Max Wind Speed 25 mph    
Max Gust Speed 34 mph    
Visibility 5 miles    
Events Snow    
Averages and records for this station are not official NWS values.
T = Trace of Precipitation, MM = Missing Value Source: NWS Daily Summary

Daily Weather History Graph

Daily Weather History Graph

Search for Another Location

Airport or City:

Astronomy

Jan. 25, 2014 Rise Set
Actual Time 7:21 AM CST 4:48 PM CST
Civil Twilight 6:49 AM CST 5:20 PM CST
Nautical Twilight 6:13 AM CST 5:56 PM CST
Astronomical Twilight 5:38 AM CST 6:32 PM CST
Moon 1:52 AM CST (1/25) 11:49 AM CST (1/25)
Length of Visible Light 10h 31m
Length of Day
9h 26m
Waning Crescent, 34% of the Moon is Illuminated
Jan 25
Waning Crescent
Jan 30
New
Feb 6
First Quarter
Feb 14
Full
Feb 22
Last Quarter

Hourly Weather History & Observations

Time (CST) Temp. Windchill Dew Point Humidity Pressure Visibility Wind Dir Wind Speed Gust Speed Precip Events Conditions
12:12 AM 21.2 °F 6.8 °F 15.8 °F 80% 29.22 in 1.8 mi NNW 17.3 mph 26.5 mph 0.00 in Snow Light Snow
12:29 AM 19.4 °F 2.1 °F 12.2 °F 74% 29.22 in 1.0 mi NNW 24.2 mph 32.2 mph 0.00 in Snow Light Snow
12:41 AM 17.6 °F 3.2 °F 10.4 °F 73% 29.23 in 3.0 mi NNW 15.0 mph 29.9 mph 0.00 in Snow Light Snow
12:51 AM 17.6 °F 1.7 °F 8.6 °F 68% 29.24 in 7.0 mi NNW 18.4 mph 31.1 mph 0.00 in   Mostly Cloudy
12:54 AM 17.1 °F -0.6 °F 7.0 °F 65% 29.31 in 5.0 mi NNW 23.0 mph 33.4 mph 0.00 in   Mostly Cloudy
1:54 AM 14.0 °F -0.8 °F 3.9 °F 64% 29.34 in 10.0 mi NW 13.8 mph - 0.00 in   Scattered Clouds
2:54 AM 12.9 °F -4.9 °F 3.0 °F 65% 29.37 in 9.0 mi NW 19.6 mph 25.3 mph 0.00 in   Overcast
3:54 AM 10.0 °F -9.1 °F 1.9 °F 70% 29.39 in 6.0 mi NW 20.7 mph 29.9 mph 0.00 in Snow Blowing Snow
4:05 AM 10.4 °F -7.7 °F -0.4 °F 62% 29.33 in 7.0 mi NW 18.4 mph 28.8 mph N/A   Scattered Clouds
4:19 AM 10.4 °F -7.7 °F 1.4 °F 67% 29.34 in 1.5 mi NW 18.4 mph 28.8 mph 0.00 in Snow Light Snow
4:24 AM 8.6 °F -8.9 °F 3.2 °F 79% 29.34 in 0.5 mi WNW 16.1 mph 25.3 mph 0.00 in Snow Snow
4:40 AM 8.6 °F -10.0 °F 1.4 °F 73% 29.35 in 1.0 mi NW 18.4 mph 34.5 mph 0.00 in Snow Light Snow
4:54 AM 7.0 °F -13.6 °F -0.9 °F 70% 29.44 in 2.0 mi NW 21.9 mph 32.2 mph 0.00 in Snow Blowing Snow
5:14 AM 6.8 °F -12.4 °F -2.2 °F 67% 29.37 in 6.0 mi NW 18.4 mph 26.5 mph 0.00 in   Haze
5:21 AM 6.8 °F -10.0 °F -2.2 °F 67% 29.37 in 9.0 mi NW 13.8 mph 26.5 mph 0.00 in   Mostly Cloudy
5:54 AM 5.0 °F -13.6 °F -6.0 °F 61% 29.46 in 10.0 mi NW 16.1 mph - 0.00 in   Clear
6:28 AM 5.0 °F -14.7 °F -4.0 °F 66% 29.41 in 2.5 mi NW 18.4 mph 27.6 mph 0.00 in Snow Light Snow
6:54 AM 3.9 °F -18.1 °F -5.1 °F 66% 29.49 in 2.0 mi NW 23.0 mph 32.2 mph 0.00 in Snow Light Snow
7:08 AM 3.2 °F -17.6 °F -5.8 °F 66% 29.43 in 5.0 mi NW 19.6 mph 28.8 mph 0.00 in Snow Blowing Snow
7:15 AM 3.2 °F -19.5 °F -7.6 °F 61% 29.43 in 5.0 mi NW 24.2 mph 32.2 mph 0.00 in Snow Blowing Snow
7:54 AM 3.0 °F -15.5 °F -8.0 °F 60% 29.53 in 10.0 mi NW 15.0 mph 24.2 mph 0.00 in   Mostly Cloudy
8:43 AM 3.2 °F -14.6 °F -5.8 °F 66% 29.47 in 1.8 mi NW 13.8 mph 26.5 mph 0.00 in Snow Light Snow
8:51 AM 3.2 °F -17.6 °F -5.8 °F 66% 29.47 in 1.5 mi NW 19.6 mph 24.2 mph 0.00 in Snow Light Snow
8:54 AM 3.0 °F -18.3 °F -5.1 °F 69% 29.55 in 1.5 mi NW 20.7 mph 24.2 mph 0.00 in Snow Light Snow
9:02 AM 3.2 °F -13.9 °F -5.8 °F 66% 29.48 in 3.0 mi NNW 12.7 mph - 0.00 in   Overcast
9:08 AM 3.2 °F -14.6 °F -5.8 °F 66% 29.49 in 1.5 mi NNW 13.8 mph 23.0 mph 0.00 in Snow Light Snow
9:17 AM 1.4 °F -18.2 °F -4.0 °F 78% 29.49 in 0.5 mi NNW 16.1 mph 26.5 mph 0.00 in Snow Snow
9:45 AM 1.4 °F -21.0 °F -9.4 °F 61% 29.51 in 1.2 mi NNW 21.9 mph 31.1 mph 0.00 in Snow Blowing Snow
9:54 AM 1.9 °F -19.8 °F -9.0 °F 60% 29.59 in 2.5 mi NNW 20.7 mph 29.9 mph 0.00 in Snow Blowing Snow
10:07 AM 1.4 °F -21.4 °F -9.4 °F 61% 29.51 in 1.5 mi NNW 23.0 mph 31.1 mph N/A Snow Blowing Snow
10:40 AM 1.4 °F -19.4 °F -7.6 °F 66% 29.53 in 2.5 mi NW 18.4 mph 26.5 mph 0.00 in   Overcast
10:51 AM 1.4 °F -18.2 °F -7.6 °F 66% 29.53 in 3.0 mi NNW 16.1 mph 26.5 mph 0.00 in Snow Blowing Snow
10:54 AM 1.9 °F -18.1 °F -8.0 °F 63% 29.60 in 4.0 mi NW 17.3 mph 24.2 mph 0.00 in Snow Blowing Snow
11:21 AM 1.4 °F -19.9 °F -9.4 °F 61% 29.53 in 4.0 mi NW 19.6 mph 31.1 mph 0.00 in Snow Blowing Snow
11:38 AM 3.2 °F -15.3 °F -7.6 °F 61% 29.53 in 1.8 mi NNW 15.0 mph 32.2 mph 0.00 in Snow Light Snow
11:54 AM 1.9 °F -18.1 °F -7.1 °F 66% 29.61 in 1.2 mi NNW 17.3 mph 28.8 mph 0.00 in Snow Light Snow
12:09 PM 1.4 °F -19.4 °F -9.4 °F 61% 29.54 in 1.5 mi NW 18.4 mph 34.5 mph 0.00 in Snow Light Snow
12:12 PM 1.4 °F -22.3 °F -11.2 °F 56% 29.54 in 2.0 mi NNW 25.3 mph 34.5 mph 0.00 in Snow Blowing Snow
12:28 PM 1.4 °F -18.8 °F -11.2 °F 56% 29.54 in 4.0 mi NNW 17.3 mph 32.2 mph 0.00 in Snow Blowing Snow
12:54 PM 1.0 °F -19.9 °F -11.0 °F 57% 29.63 in 4.0 mi NW 18.4 mph 32.2 mph 0.00 in Snow Blowing Snow
1:54 PM 1.0 °F -20.9 °F -11.9 °F 55% 29.63 in 6.0 mi NW 20.7 mph 28.8 mph 0.00 in Snow Blowing Snow
2:29 PM 1.4 °F -18.8 °F -7.6 °F 66% 29.56 in 1.8 mi NNW 17.3 mph 26.5 mph 0.00 in Snow Light Snow
2:35 PM 1.4 °F -19.9 °F -9.4 °F 61% 29.56 in 3.0 mi NNW 19.6 mph 25.3 mph 0.00 in Snow Light Snow
2:54 PM 1.0 °F -20.9 °F -9.9 °F 60% 29.66 in 4.0 mi NW 20.7 mph 27.6 mph 0.00 in Snow Blowing Snow
3:39 PM 1.4 °F -16.1 °F -9.4 °F 61% 29.59 in 6.0 mi NW 12.7 mph 21.9 mph N/A   Haze
3:49 PM 1.4 °F -17.6 °F -9.4 °F 61% 29.59 in 9.0 mi NNW 15.0 mph 25.3 mph N/A   Overcast
3:54 PM -0.0 °F -18.7 °F -9.9 °F 63% 29.69 in 6.0 mi NNW 13.8 mph 25.3 mph N/A Snow Blowing Snow
4:15 PM -0.4 °F -22.8 °F -9.4 °F 66% 29.60 in 1.8 mi NW 20.7 mph 26.5 mph 0.00 in Snow Light Snow
4:25 PM -0.4 °F -21.7 °F -9.4 °F 66% 29.60 in 2.0 mi NW 18.4 mph 24.2 mph 0.00 in Snow Light Snow
4:35 PM -0.4 °F -17.6 °F -11.2 °F 60% 29.60 in 6.0 mi WNW 11.5 mph - 0.00 in   Haze
4:54 PM -0.9 °F -15.3 °F -11.9 °F 60% 29.71 in 10.0 mi WNW 8.1 mph - 0.00 in   Overcast
5:17 PM -2.2 °F -16.8 °F -11.2 °F 66% 29.62 in 10.0 mi NW 8.1 mph - N/A   Scattered Clouds
5:54 PM -2.0 °F -15.4 °F -11.9 °F 63% 29.73 in 10.0 mi WNW 6.9 mph - N/A   Partly Cloudy
6:54 PM -0.9 °F -8.9 °F -11.0 °F 62% 29.73 in 10.0 mi West 3.5 mph - N/A   Overcast
7:54 PM -0.9 °F -8.9 °F -9.9 °F 66% 29.72 in 10.0 mi West 3.5 mph - N/A   Overcast
8:54 PM -0.9 °F -12.7 °F -9.9 °F 66% 29.71 in 10.0 mi West 5.8 mph - N/A   Overcast
9:54 PM -0.9 °F -14.1 °F -9.9 °F 66% 29.71 in 10.0 mi WSW 6.9 mph - N/A   Overcast
10:17 PM -2.2 °F -15.6 °F -11.2 °F 66% 29.61 in 10.0 mi West 6.9 mph - N/A   Overcast
10:54 PM -2.9 °F -13.3 °F -11.9 °F 65% 29.70 in 10.0 mi West 4.6 mph - N/A   Overcast
11:21 PM -2.2 °F -12.5 °F -11.2 °F 66% 29.59 in 10.0 mi West 4.6 mph - N/A   Scattered Clouds
11:54 PM -2.9 °F -16.5 °F -13.0 °F 62% 29.67 in 10.0 mi WSW 6.9 mph - N/A   Partly Cloudy